sensor_id;sensor_type;location;lat;lon;timestamp;temperature;humidity
18225;DHT22;9237;48.590;8.854;2024-03-23T00:54:53;5.80;99.90
18225;DHT22;9237;48.590;8.854;2024-03-23T00:57:19;5.80;99.90
18225;DHT22;9237;48.590;8.854;2024-03-23T00:59:46;5.70;99.90
18225;DHT22;9237;48.590;8.854;2024-03-23T01:02:12;5.90;99.90
18225;DHT22;9237;48.590;8.854;2024-03-23T01:04:38;5.80;99.90
18225;DHT22;9237;48.590;8.854;2024-03-23T01:07:04;5.70;99.90
18225;DHT22;9237;48.590;8.854;2024-03-23T01:09:32;5.80;99.90
18225;DHT22;9237;48.590;8.854;2024-03-23T01:11:58;5.70;99.90
18225;DHT22;9237;48.590;8.854;2024-03-23T01:14:25;5.80;99.90
18225;DHT22;9237;48.590;8.854;2024-03-23T01:16:50;5.80;99.90
18225;DHT22;9237;48.590;8.854;2024-03-23T01:19:17;5.90;99.90
18225;DHT22;9237;48.590;8.854;2024-03-23T01:21:43;6.00;99.90
18225;DHT22;9237;48.590;8.854;2024-03-23T01:24:10;6.10;99.90
18225;DHT22;9237;48.590;8.854;2024-03-23T01:26:37;6.30;99.90
18225;DHT22;9237;48.590;8.854;2024-03-23T01:29:04;6.40;99.90
18225;DHT22;9237;48.590;8.854;2024-03-23T01:31:30;6.50;99.90
18225;DHT22;9237;48.590;8.854;2024-03-23T01:33:57;6.60;99.90
18225;DHT22;9237;48.590;8.854;2024-03-23T01:36:24;6.70;99.90
18225;DHT22;9237;48.590;8.854;2024-03-23T01:38:51;6.60;99.90
18225;DHT22;9237;48.590;8.854;2024-03-23T01:41:17;6.40;99.90
18225;DHT22;9237;48.590;8.854;2024-03-23T01:43:46;6.20;99.90
18225;DHT22;9237;48.590;8.854;2024-03-23T01:46:13;6.10;99.90
18225;DHT22;9237;48.590;8.854;2024-03-23T01:48:39;6.00;99.90
18225;DHT22;9237;48.590;8.854;2024-03-23T01:51:05;5.90;99.90
18225;DHT22;9237;48.590;8.854;2024-03-23T01:53:32;5.90;99.90
18225;DHT22;9237;48.590;8.854;2024-03-23T01:55:58;6.00;99.90
18225;DHT22;9237;48.590;8.854;2024-03-23T01:58:25;5.90;99.90
18225;DHT22;9237;48.590;8.854;2024-03-23T02:00:52;5.90;99.90
18225;DHT22;9237;48.590;8.854;2024-03-23T02:03:22;6.00;99.90
18225;DHT22;9237;48.590;8.854;2024-03-23T02:05:49;6.20;99.90
18225;DHT22;9237;48.590;8.854;2024-03-23T02:08:17;6.10;99.90
18225;DHT22;9237;48.590;8.854;2024-03-23T02:10:43;6.10;99.90
18225;DHT22;9237;48.590;8.854;2024-03-23T02:13:10;6.00;99.90
18225;DHT22;9237;48.590;8.854;2024-03-23T02:15:36;6.00;99.90
18225;DHT22;9237;48.590;8.854;2024-03-23T02:18:04;6.10;99.90
18225;DHT22;9237;48.590;8.854;2024-03-23T02:20:30;6.10;99.90
18225;DHT22;9237;48.590;8.854;2024-03-23T02:22:58;6.10;99.90
18225;DHT22;9237;48.590;8.854;2024-03-23T02:25:24;6.10;99.90
18225;DHT22;9237;48.590;8.854;2024-03-23T02:27:50;6.10;99.90
18225;DHT22;9237;48.590;8.854;2024-03-23T02:30:16;6.20;99.90
18225;DHT22;9237;48.590;8.854;2024-03-23T02:32:43;6.20;99.90
18225;DHT22;9237;48.590;8.854;2024-03-23T02:35:09;6.30;99.90
18225;DHT22;9237;48.590;8.854;2024-03-23T02:37:36;6.40;99.90
18225;DHT22;9237;48.590;8.854;2024-03-23T02:40:03;6.50;99.90
18225;DHT22;9237;48.590;8.854;2024-03-23T02:42:30;6.70;99.90
18225;DHT22;9237;48.590;8.854;2024-03-23T02:44:57;6.90;99.90
18225;DHT22;9237;48.590;8.854;2024-03-23T02:47:24;7.20;99.90
18225;DHT22;9237;48.590;8.854;2024-03-23T02:49:51;7.30;99.90
18225;DHT22;9237;48.590;8.854;2024-03-23T02:52:17;7.30;99.90
18225;DHT22;9237;48.590;8.854;2024-03-23T02:54:43;7.30;99.90
18225;DHT22;9237;48.590;8.854;2024-03-23T02:57:12;7.20;99.90
18225;DHT22;9237;48.590;8.854;2024-03-23T02:59:38;7.30;99.90
18225;DHT22;9237;48.590;8.854;2024-03-23T03:02:04;7.30;99.90
18225;DHT22;9237;48.590;8.854;2024-03-23T03:04:32;7.40;99.90
18225;DHT22;9237;48.590;8.854;2024-03-23T03:06:58;7.40;99.90
18225;DHT22;9237;48.590;8.854;2024-03-23T03:09:25;7.40;99.90
18225;DHT22;9237;48.590;8.854;2024-03-23T03:11:51;7.40;99.90
18225;DHT22;9237;48.590;8.854;2024-03-23T03:14:19;7.50;99.90
18225;DHT22;9237;48.590;8.854;2024-03-23T03:16:45;7.50;99.90
18225;DHT22;9237;48.590;8.854;2024-03-23T03:19:12;7.40;99.90
18225;DHT22;9237;48.590;8.854;2024-03-23T03:21:38;7.30;99.90
18225;DHT22;9237;48.590;8.854;2024-03-23T03:24:06;7.30;99.90
18225;DHT22;9237;48.590;8.854;2024-03-23T03:26:32;7.20;99.90
18225;DHT22;9237;48.590;8.854;2024-03-23T03:28:59;7.10;99.90
18225;DHT22;9237;48.590;8.854;2024-03-23T03:31:26;7.10;99.90
18225;DHT22;9237;48.590;8.854;2024-03-23T03:33:53;6.90;99.90
18225;DHT22;9237;48.590;8.854;2024-03-23T03:36:19;6.80;99.90
18225;DHT22;9237;48.590;8.854;2024-03-23T03:38:46;6.90;99.90
18225;DHT22;9237;48.590;8.854;2024-03-23T03:41:12;6.90;99.90
18225;DHT22;9237;48.590;8.854;2024-03-23T03:43:39;7.00;99.90
18225;DHT22;9237;48.590;8.854;2024-03-23T03:46:05;7.10;99.90
18225;DHT22;9237;48.590;8.854;2024-03-23T03:48:34;7.00;99.90
18225;DHT22;9237;48.590;8.854;2024-03-23T03:51:00;6.90;99.90
18225;DHT22;9237;48.590;8.854;2024-03-23T03:53:27;6.60;99.90
18225;DHT22;9237;48.590;8.854;2024-03-23T03:55:53;6.40;99.90
18225;DHT22;9237;48.590;8.854;2024-03-23T03:58:19;6.30;99.90
18225;DHT22;9237;48.590;8.854;2024-03-23T04:00:45;6.20;99.90
18225;DHT22;9237;48.590;8.854;2024-03-23T04:03:12;6.10;99.90
18225;DHT22;9237;48.590;8.854;2024-03-23T04:05:39;6.10;99.90
18225;DHT22;9237;48.590;8.854;2024-03-23T04:08:07;6.10;99.90
18225;DHT22;9237;48.590;8.854;2024-03-23T04:10:33;6.00;99.90
18225;DHT22;9237;48.590;8.854;2024-03-23T04:13:00;5.90;99.90
18225;DHT22;9237;48.590;8.854;2024-03-23T04:15:26;5.80;99.90
18225;DHT22;9237;48.590;8.854;2024-03-23T04:17:53;6.00;99.90
18225;DHT22;9237;48.590;8.854;2024-03-23T04:20:19;6.00;99.90
18225;DHT22;9237;48.590;8.854;2024-03-23T04:22:47;6.10;99.90
18225;DHT22;9237;48.590;8.854;2024-03-23T04:25:13;6.20;99.90
18225;DHT22;9237;48.590;8.854;2024-03-23T04:27:40;6.20;99.90
18225;DHT22;9237;48.590;8.854;2024-03-23T04:30:08;6.30;99.90
18225;DHT22;9237;48.590;8.854;2024-03-23T04:32:36;6.30;99.90
18225;DHT22;9237;48.590;8.854;2024-03-23T04:35:02;6.30;99.90
18225;DHT22;9237;48.590;8.854;2024-03-23T04:37:31;6.40;99.90
18225;DHT22;9237;48.590;8.854;2024-03-23T04:40:01;6.40;99.90
18225;DHT22;9237;48.590;8.854;2024-03-23T04:42:28;6.60;99.90
18225;DHT22;9237;48.590;8.854;2024-03-23T04:44:55;6.80;99.90
18225;DHT22;9237;48.590;8.854;2024-03-23T04:47:22;7.00;99.90
18225;DHT22;9237;48.590;8.854;2024-03-23T04:49:49;7.00;99.90
18225;DHT22;9237;48.590;8.854;2024-03-23T04:52:16;7.20;99.90
18225;DHT22;9237;48.590;8.854;2024-03-23T04:54:42;7.60;99.90
18225;DHT22;9237;48.590;8.854;2024-03-23T04:57:10;8.20;99.90
18225;DHT22;9237;48.590;8.854;2024-03-23T04:59:36;8.60;99.90
18225;DHT22;9237;48.590;8.854;2024-03-23T05:02:02;8.70;99.90
18225;DHT22;9237;48.590;8.854;2024-03-23T05:04:29;8.80;99.90
18225;DHT22;9237;48.590;8.854;2024-03-23T05:06:55;8.90;99.90
18225;DHT22;9237;48.590;8.854;2024-03-23T05:09:22;8.90;99.90
18225;DHT22;9237;48.590;8.854;2024-03-23T05:11:47;8.90;99.90
18225;DHT22;9237;48.590;8.854;2024-03-23T05:14:16;8.90;99.90
18225;DHT22;9237;48.590;8.854;2024-03-23T05:16:41;8.80;99.90
18225;DHT22;9237;48.590;8.854;2024-03-23T05:19:08;8.80;99.90
18225;DHT22;9237;48.590;8.854;2024-03-23T05:21:34;8.80;99.90
18225;DHT22;9237;48.590;8.854;2024-03-23T05:24:01;8.70;99.90
18225;DHT22;9237;48.590;8.854;2024-03-23T05:26:28;8.70;99.90
18225;DHT22;9237;48.590;8.854;2024-03-23T05:28:55;8.70;99.90
18225;DHT22;9237;48.590;8.854;2024-03-23T05:31:25;8.70;99.90
18225;DHT22;9237;48.590;8.854;2024-03-23T05:33:52;8.70;99.90
18225;DHT22;9237;48.590;8.854;2024-03-23T05:36:18;8.80;99.90
18225;DHT22;9237;48.590;8.854;2024-03-23T05:38:45;8.70;99.90
18225;DHT22;9237;48.590;8.854;2024-03-23T05:41:10;8.70;99.90
18225;DHT22;9237;48.590;8.854;2024-03-23T05:43:37;8.60;99.90
18225;DHT22;9237;48.590;8.854;2024-03-23T05:46:03;8.60;99.90
18225;DHT22;9237;48.590;8.854;2024-03-23T05:48:32;8.50;99.90
18225;DHT22;9237;48.590;8.854;2024-03-23T05:50:57;8.50;99.90
18225;DHT22;9237;48.590;8.854;2024-03-23T05:53:24;8.40;99.90
18225;DHT22;9237;48.590;8.854;2024-03-23T05:55:51;8.40;99.90
18225;DHT22;9237;48.590;8.854;2024-03-23T05:58:19;8.40;99.90
18225;DHT22;9237;48.590;8.854;2024-03-23T06:00:45;8.30;99.90
18225;DHT22;9237;48.590;8.854;2024-03-23T06:03:12;8.30;99.90
18225;DHT22;9237;48.590;8.854;2024-03-23T06:05:39;8.10;99.90
18225;DHT22;9237;48.590;8.854;2024-03-23T06:08:08;8.00;99.90
18225;DHT22;9237;48.590;8.854;2024-03-23T06:10:35;7.90;99.90
18225;DHT22;9237;48.590;8.854;2024-03-23T06:13:01;7.80;99.90
18225;DHT22;9237;48.590;8.854;2024-03-23T06:15:28;7.70;99.90
18225;DHT22;9237;48.590;8.854;2024-03-23T06:17:54;7.60;99.90
18225;DHT22;9237;48.590;8.854;2024-03-23T06:20:21;7.60;99.90
18225;DHT22;9237;48.590;8.854;2024-03-23T06:22:48;7.60;99.90
18225;DHT22;9237;48.590;8.854;2024-03-23T06:25:15;7.50;99.90
18225;DHT22;9237;48.590;8.854;2024-03-23T06:27:41;7.50;99.90
18225;DHT22;9237;48.590;8.854;2024-03-23T06:30:08;7.50;99.90
18225;DHT22;9237;48.590;8.854;2024-03-23T06:32:34;7.40;99.90
18225;DHT22;9237;48.590;8.854;2024-03-23T06:35:00;7.40;99.90
18225;DHT22;9237;48.590;8.854;2024-03-23T06:37:33;7.40;99.90
18225;DHT22;9237;48.590;8.854;2024-03-23T06:40:01;7.40;99.90
18225;DHT22;9237;48.590;8.854;2024-03-23T06:42:27;7.40;99.90
18225;DHT22;9237;48.590;8.854;2024-03-23T06:44:53;7.40;99.90
18225;DHT22;9237;48.590;8.854;2024-03-23T06:47:19;7.40;99.90
18225;DHT22;9237;48.590;8.854;2024-03-23T06:49:46;7.40;99.90
18225;DHT22;9237;48.590;8.854;2024-03-23T06:52:12;7.50;99.90
18225;DHT22;9237;48.590;8.854;2024-03-23T06:54:39;7.50;99.90
18225;DHT22;9237;48.590;8.854;2024-03-23T06:57:06;7.50;99.90
18225;DHT22;9237;48.590;8.854;2024-03-23T06:59:33;7.60;99.90
18225;DHT22;9237;48.590;8.854;2024-03-23T07:01:59;7.50;99.90
18225;DHT22;9237;48.590;8.854;2024-03-23T07:04:25;7.50;99.90
18225;DHT22;9237;48.590;8.854;2024-03-23T07:06:51;7.50;99.90
18225;DHT22;9237;48.590;8.854;2024-03-23T07:09:18;7.60;99.90
18225;DHT22;9237;48.590;8.854;2024-03-23T07:11:45;7.80;99.90
18225;DHT22;9237;48.590;8.854;2024-03-23T07:14:13;8.00;99.90
18225;DHT22;9237;48.590;8.854;2024-03-23T07:16:39;8.10;99.90
18225;DHT22;9237;48.590;8.854;2024-03-23T07:19:06;8.10;99.90
18225;DHT22;9237;48.590;8.854;2024-03-23T07:21:31;8.20;99.90
18225;DHT22;9237;48.590;8.854;2024-03-23T07:23:58;8.20;99.90
18225;DHT22;9237;48.590;8.854;2024-03-23T07:26:24;8.10;99.90
18225;DHT22;9237;48.590;8.854;2024-03-23T07:28:51;7.90;99.90
18225;DHT22;9237;48.590;8.854;2024-03-23T07:31:19;8.00;99.90
18225;DHT22;9237;48.590;8.854;2024-03-23T07:33:48;8.20;99.90
18225;DHT22;9237;48.590;8.854;2024-03-23T07:36:14;8.30;99.90
18225;DHT22;9237;48.590;8.854;2024-03-23T07:38:41;8.40;99.90
18225;DHT22;9237;48.590;8.854;2024-03-23T07:41:08;8.40;99.90
18225;DHT22;9237;48.590;8.854;2024-03-23T07:43:35;8.20;99.90
18225;DHT22;9237;48.590;8.854;2024-03-23T07:46:01;8.10;99.90
18225;DHT22;9237;48.590;8.854;2024-03-23T07:48:30;8.10;99.90
18225;DHT22;9237;48.590;8.854;2024-03-23T07:50:58;8.10;99.90
18225;DHT22;9237;48.590;8.854;2024-03-23T07:53:25;7.90;99.90
18225;DHT22;9237;48.590;8.854;2024-03-23T07:55:55;7.70;99.90
18225;DHT22;9237;48.590;8.854;2024-03-23T07:58:22;7.70;99.90
18225;DHT22;9237;48.590;8.854;2024-03-23T08:00:48;7.60;99.90
18225;DHT22;9237;48.590;8.854;2024-03-23T08:03:15;7.60;99.90
18225;DHT22;9237;48.590;8.854;2024-03-23T08:05:42;7.60;99.90
18225;DHT22;9237;48.590;8.854;2024-03-23T08:08:09;7.60;99.90
18225;DHT22;9237;48.590;8.854;2024-03-23T08:10:36;7.60;99.90
18225;DHT22;9237;48.590;8.854;2024-03-23T08:13:03;7.50;99.90
18225;DHT22;9237;48.590;8.854;2024-03-23T08:15:30;7.40;99.90
18225;DHT22;9237;48.590;8.854;2024-03-23T08:17:59;7.50;99.90
18225;DHT22;9237;48.590;8.854;2024-03-23T08:20:25;7.70;99.90
18225;DHT22;9237;48.590;8.854;2024-03-23T08:22:53;7.70;99.90
18225;DHT22;9237;48.590;8.854;2024-03-23T08:25:19;7.80;99.90
18225;DHT22;9237;48.590;8.854;2024-03-23T08:27:46;8.00;99.90
18225;DHT22;9237;48.590;8.854;2024-03-23T08:30:12;8.60;99.90
18225;DHT22;9237;48.590;8.854;2024-03-23T08:32:39;9.30;99.90
18225;DHT22;9237;48.590;8.854;2024-03-23T08:35:06;9.20;99.90
18225;DHT22;9237;48.590;8.854;2024-03-23T08:37:33;8.70;99.90
18225;DHT22;9237;48.590;8.854;2024-03-23T08:40:00;8.30;99.90
18225;DHT22;9237;48.590;8.854;2024-03-23T08:42:27;8.60;99.90
18225;DHT22;9237;48.590;8.854;2024-03-23T08:44:53;9.10;99.90
18225;DHT22;9237;48.590;8.854;2024-03-23T08:47:20;9.00;99.90
18225;DHT22;9237;48.590;8.854;2024-03-23T08:49:45;8.90;99.90
18225;DHT22;9237;48.590;8.854;2024-03-23T08:52:12;8.50;99.90
18225;DHT22;9237;48.590;8.854;2024-03-23T08:54:38;8.20;99.90
18225;DHT22;9237;48.590;8.854;2024-03-23T08:57:06;8.00;99.90
18225;DHT22;9237;48.590;8.854;2024-03-23T08:59:32;7.90;99.90
18225;DHT22;9237;48.590;8.854;2024-03-23T09:01:59;7.90;99.90
18225;DHT22;9237;48.590;8.854;2024-03-23T09:04:25;8.10;99.90
18225;DHT22;9237;48.590;8.854;2024-03-23T09:06:51;8.30;99.90
18225;DHT22;9237;48.590;8.854;2024-03-23T09:09:17;8.30;99.90
18225;DHT22;9237;48.590;8.854;2024-03-23T09:11:45;8.30;99.90
18225;DHT22;9237;48.590;8.854;2024-03-23T09:14:12;8.60;99.90
18225;DHT22;9237;48.590;8.854;2024-03-23T09:16:39;8.80;99.90
18225;DHT22;9237;48.590;8.854;2024-03-23T09:19:05;8.80;99.90
18225;DHT22;9237;48.590;8.854;2024-03-23T09:21:32;8.80;99.90
18225;DHT22;9237;48.590;8.854;2024-03-23T09:23:57;8.50;99.90
18225;DHT22;9237;48.590;8.854;2024-03-23T09:26:24;8.50;99.90
18225;DHT22;9237;48.590;8.854;2024-03-23T09:28:50;8.70;99.90
18225;DHT22;9237;48.590;8.854;2024-03-23T09:31:18;8.60;99.90
18225;DHT22;9237;48.590;8.854;2024-03-23T09:33:44;7.70;99.90
18225;DHT22;9237;48.590;8.854;2024-03-23T09:36:10;6.80;99.90
18225;DHT22;9237;48.590;8.854;2024-03-23T09:38:36;6.40;99.90
18225;DHT22;9237;48.590;8.854;2024-03-23T09:41:07;6.30;99.90
18225;DHT22;9237;48.590;8.854;2024-03-23T09:43:33;6.20;99.90
18225;DHT22;9237;48.590;8.854;2024-03-23T09:46:01;6.20;99.90
18225;DHT22;9237;48.590;8.854;2024-03-23T09:48:29;6.30;99.90
18225;DHT22;9237;48.590;8.854;2024-03-23T09:50:57;6.60;99.90
18225;DHT22;9237;48.590;8.854;2024-03-23T09:53:22;6.70;99.90
18225;DHT22;9237;48.590;8.854;2024-03-23T09:55:49;6.70;99.90
18225;DHT22;9237;48.590;8.854;2024-03-23T09:58:17;6.80;99.90
18225;DHT22;9237;48.590;8.854;2024-03-23T10:00:44;6.80;99.90
18225;DHT22;9237;48.590;8.854;2024-03-23T10:03:10;6.80;99.90
18225;DHT22;9237;48.590;8.854;2024-03-23T10:05:38;7.70;99.90
18225;DHT22;9237;48.590;8.854;2024-03-23T10:08:18;9.10;99.90
18225;DHT22;9237;48.590;8.854;2024-03-23T10:10:46;10.20;99.90
18225;DHT22;9237;48.590;8.854;2024-03-23T10:13:23;11.10;99.90
18225;DHT22;9237;48.590;8.854;2024-03-23T10:15:55;11.90;99.90
18225;DHT22;9237;48.590;8.854;2024-03-23T10:18:22;12.30;99.90
18225;DHT22;9237;48.590;8.854;2024-03-23T10:21:06;12.40;99.90
18225;DHT22;9237;48.590;8.854;2024-03-23T10:23:32;12.90;99.90
18225;DHT22;9237;48.590;8.854;2024-03-23T10:26:21;11.10;99.90
18225;DHT22;9237;48.590;8.854;2024-03-23T10:28:54;10.80;99.90
18225;DHT22;9237;48.590;8.854;2024-03-23T10:31:23;9.70;99.90
18225;DHT22;9237;48.590;8.854;2024-03-23T10:33:49;9.20;99.90
18225;DHT22;9237;48.590;8.854;2024-03-23T10:36:21;9.00;99.90
18225;DHT22;9237;48.590;8.854;2024-03-23T10:38:48;8.60;99.90
18225;DHT22;9237;48.590;8.854;2024-03-23T10:41:16;7.40;99.90
18225;DHT22;9237;48.590;8.854;2024-03-23T10:43:43;5.90;99.90
18225;DHT22;9237;48.590;8.854;2024-03-23T10:46:11;5.40;99.90
18225;DHT22;9237;48.590;8.854;2024-03-23T10:48:37;5.70;99.90
18225;DHT22;9237;48.590;8.854;2024-03-23T10:51:06;6.20;99.90
18225;DHT22;9237;48.590;8.854;2024-03-23T10:53:34;6.50;99.90
18225;DHT22;9237;48.590;8.854;2024-03-23T10:56:03;6.60;99.90
18225;DHT22;9237;48.590;8.854;2024-03-23T10:58:31;6.90;99.90
18225;DHT22;9237;48.590;8.854;2024-03-23T11:00:59;7.00;99.90
18225;DHT22;9237;48.590;8.854;2024-03-23T11:03:30;7.60;99.90
18225;DHT22;9237;48.590;8.854;2024-03-23T11:05:57;7.60;99.90
18225;DHT22;9237;48.590;8.854;2024-03-23T11:08:30;7.20;99.90
18225;DHT22;9237;48.590;8.854;2024-03-23T11:11:17;7.20;99.90
18225;DHT22;9237;48.590;8.854;2024-03-23T11:13:43;7.30;99.90
18225;DHT22;9237;48.590;8.854;2024-03-23T11:16:14;7.40;99.90
18225;DHT22;9237;48.590;8.854;2024-03-23T11:18:40;7.60;99.90
18225;DHT22;9237;48.590;8.854;2024-03-23T11:21:07;7.50;99.90
18225;DHT22;9237;48.590;8.854;2024-03-23T11:23:33;7.50;99.90
18225;DHT22;9237;48.590;8.854;2024-03-23T11:26:00;7.50;99.90
18225;DHT22;9237;48.590;8.854;2024-03-23T11:28:27;7.40;99.90
18225;DHT22;9237;48.590;8.854;2024-03-23T11:30:54;7.40;99.90
18225;DHT22;9237;48.590;8.854;2024-03-23T11:33:20;7.40;99.90
18225;DHT22;9237;48.590;8.854;2024-03-23T11:35:46;7.20;99.90
18225;DHT22;9237;48.590;8.854;2024-03-23T11:38:14;7.20;99.90
18225;DHT22;9237;48.590;8.854;2024-03-23T11:40:42;7.30;99.90
18225;DHT22;9237;48.590;8.854;2024-03-23T11:43:09;7.30;99.90
18225;DHT22;9237;48.590;8.854;2024-03-23T11:45:41;7.50;99.90
18225;DHT22;9237;48.590;8.854;2024-03-23T11:48:08;7.60;99.90
18225;DHT22;9237;48.590;8.854;2024-03-23T11:50:38;7.90;99.90
18225;DHT22;9237;48.590;8.854;2024-03-23T11:53:24;8.00;99.90
18225;DHT22;9237;48.590;8.854;2024-03-23T11:55:54;7.90;99.90
18225;DHT22;9237;48.590;8.854;2024-03-23T11:58:21;7.80;99.90
18225;DHT22;9237;48.590;8.854;2024-03-23T12:00:55;8.00;99.90
18225;DHT22;9237;48.590;8.854;2024-03-23T12:03:21;8.30;99.90
18225;DHT22;9237;48.590;8.854;2024-03-23T12:05:52;8.70;99.90
18225;DHT22;9237;48.590;8.854;2024-03-23T12:08:20;8.70;99.90
18225;DHT22;9237;48.590;8.854;2024-03-23T12:10:49;8.40;99.90
18225;DHT22;9237;48.590;8.854;2024-03-23T12:13:17;8.30;99.90
18225;DHT22;9237;48.590;8.854;2024-03-23T12:15:44;8.30;99.90
18225;DHT22;9237;48.590;8.854;2024-03-23T12:18:12;8.30;99.90
18225;DHT22;9237;48.590;8.854;2024-03-23T12:20:39;8.20;99.90
18225;DHT22;9237;48.590;8.854;2024-03-23T12:23:09;8.10;99.90
18225;DHT22;9237;48.590;8.854;2024-03-23T12:25:37;8.00;99.90
18225;DHT22;9237;48.590;8.854;2024-03-23T12:28:04;8.60;99.90
18225;DHT22;9237;48.590;8.854;2024-03-23T12:30:32;8.70;99.90
18225;DHT22;9237;48.590;8.854;2024-03-23T12:32:58;8.90;99.90
18225;DHT22;9237;48.590;8.854;2024-03-23T12:35:26;8.60;99.90
18225;DHT22;9237;48.590;8.854;2024-03-23T12:37:53;8.80;99.90
18225;DHT22;9237;48.590;8.854;2024-03-23T12:40:20;8.60;99.90
18225;DHT22;9237;48.590;8.854;2024-03-23T12:42:46;8.40;99.90
18225;DHT22;9237;48.590;8.854;2024-03-23T12:45:13;8.70;99.90
18225;DHT22;9237;48.590;8.854;2024-03-23T12:47:38;9.00;99.90
18225;DHT22;9237;48.590;8.854;2024-03-23T12:50:06;8.80;99.90
18225;DHT22;9237;48.590;8.854;2024-03-23T12:52:33;8.80;99.90
18225;DHT22;9237;48.590;8.854;2024-03-23T12:55:00;8.90;99.90
18225;DHT22;9237;48.590;8.854;2024-03-23T12:57:26;8.80;99.90
18225;DHT22;9237;48.590;8.854;2024-03-23T12:59:53;8.80;99.90
18225;DHT22;9237;48.590;8.854;2024-03-23T13:02:19;7.10;99.90
18225;DHT22;9237;48.590;8.854;2024-03-23T13:04:49;5.20;99.90
18225;DHT22;9237;48.590;8.854;2024-03-23T13:07:15;4.50;99.90
18225;DHT22;9237;48.590;8.854;2024-03-23T13:09:43;5.40;99.90
18225;DHT22;9237;48.590;8.854;2024-03-23T13:12:09;5.90;99.90
18225;DHT22;9237;48.590;8.854;2024-03-23T13:14:37;6.40;99.90
18225;DHT22;9237;48.590;8.854;2024-03-23T13:17:03;7.20;99.90
18225;DHT22;9237;48.590;8.854;2024-03-23T13:19:30;8.20;99.90
18225;DHT22;9237;48.590;8.854;2024-03-23T13:24:24;8.90;99.90
18225;DHT22;9237;48.590;8.854;2024-03-23T13:26:52;8.70;99.90
18225;DHT22;9237;48.590;8.854;2024-03-23T13:29:19;9.30;99.90
18225;DHT22;9237;48.590;8.854;2024-03-23T13:31:45;9.50;99.90
18225;DHT22;9237;48.590;8.854;2024-03-23T13:34:12;8.90;99.90
18225;DHT22;9237;48.590;8.854;2024-03-23T13:36:40;8.20;99.90
18225;DHT22;9237;48.590;8.854;2024-03-23T13:39:07;7.80;99.90
18225;DHT22;9237;48.590;8.854;2024-03-23T13:41:37;7.60;99.90
18225;DHT22;9237;48.590;8.854;2024-03-23T13:44:06;8.10;99.90
18225;DHT22;9237;48.590;8.854;2024-03-23T13:46:32;9.00;99.90
18225;DHT22;9237;48.590;8.854;2024-03-23T13:48:59;8.70;99.90
18225;DHT22;9237;48.590;8.854;2024-03-23T13:51:26;8.30;99.90
18225;DHT22;9237;48.590;8.854;2024-03-23T13:53:53;7.60;99.90
18225;DHT22;9237;48.590;8.854;2024-03-23T13:56:20;7.40;99.90
18225;DHT22;9237;48.590;8.854;2024-03-23T13:58:46;7.50;99.90
18225;DHT22;9237;48.590;8.854;2024-03-23T14:01:14;7.30;99.90
18225;DHT22;9237;48.590;8.854;2024-03-23T14:03:41;7.10;99.90
18225;DHT22;9237;48.590;8.854;2024-03-23T14:06:08;8.10;99.90
18225;DHT22;9237;48.590;8.854;2024-03-23T14:08:35;8.90;99.90
18225;DHT22;9237;48.590;8.854;2024-03-23T14:11:02;9.00;99.90
18225;DHT22;9237;48.590;8.854;2024-03-23T14:13:30;8.70;99.90
18225;DHT22;9237;48.590;8.854;2024-03-23T14:15:56;9.60;99.90
18225;DHT22;9237;48.590;8.854;2024-03-23T14:18:24;10.70;99.90
18225;DHT22;9237;48.590;8.854;2024-03-23T14:20:51;11.30;99.10
18225;DHT22;9237;48.590;8.854;2024-03-23T14:23:18;11.10;96.60
18225;DHT22;9237;48.590;8.854;2024-03-23T14:25:44;11.80;97.00
18225;DHT22;9237;48.590;8.854;2024-03-23T14:28:11;11.40;94.50
18225;DHT22;9237;48.590;8.854;2024-03-23T14:30:40;9.80;94.50
18225;DHT22;9237;48.590;8.854;2024-03-23T14:33:07;8.70;97.50
18225;DHT22;9237;48.590;8.854;2024-03-23T14:35:34;8.20;98.30
18225;DHT22;9237;48.590;8.854;2024-03-23T14:38:01;7.80;99.30
18225;DHT22;9237;48.590;8.854;2024-03-23T14:40:27;7.70;99.90
18225;DHT22;9237;48.590;8.854;2024-03-23T14:42:55;7.40;99.60
18225;DHT22;9237;48.590;8.854;2024-03-23T14:45:21;7.10;99.90
18225;DHT22;9237;48.590;8.854;2024-03-23T14:47:49;6.60;99.90
18225;DHT22;9237;48.590;8.854;2024-03-23T14:50:15;6.10;99.90
18225;DHT22;9237;48.590;8.854;2024-03-23T14:52:44;6.10;99.90
18225;DHT22;9237;48.590;8.854;2024-03-23T14:55:10;6.30;99.90
18225;DHT22;9237;48.590;8.854;2024-03-23T14:57:37;6.10;99.90
18225;DHT22;9237;48.590;8.854;2024-03-23T15:00:06;6.90;99.90
18225;DHT22;9237;48.590;8.854;2024-03-23T15:02:33;7.80;99.90
18225;DHT22;9237;48.590;8.854;2024-03-23T15:05:00;8.20;99.90
18225;DHT22;9237;48.590;8.854;2024-03-23T15:07:26;8.90;99.90
18225;DHT22;9237;48.590;8.854;2024-03-23T15:09:55;9.70;99.90
18225;DHT22;9237;48.590;8.854;2024-03-23T15:12:21;10.10;99.90
18225;DHT22;9237;48.590;8.854;2024-03-23T15:14:48;10.40;99.90
18225;DHT22;9237;48.590;8.854;2024-03-23T15:17:14;10.30;99.70
18225;DHT22;9237;48.590;8.854;2024-03-23T15:19:41;9.80;99.50
18225;DHT22;9237;48.590;8.854;2024-03-23T15:22:08;9.50;99.80
18225;DHT22;9237;48.590;8.854;2024-03-23T15:24:35;8.70;99.90
18225;DHT22;9237;48.590;8.854;2024-03-23T15:27:03;7.70;99.90
18225;DHT22;9237;48.590;8.854;2024-03-23T15:29:30;7.20;99.90
18225;DHT22;9237;48.590;8.854;2024-03-23T15:31:56;7.00;99.90
18225;DHT22;9237;48.590;8.854;2024-03-23T15:34:23;6.80;99.90
18225;DHT22;9237;48.590;8.854;2024-03-23T15:36:49;6.70;99.90
18225;DHT22;9237;48.590;8.854;2024-03-23T15:39:16;6.20;99.90
18225;DHT22;9237;48.590;8.854;2024-03-23T15:41:44;5.80;99.90
18225;DHT22;9237;48.590;8.854;2024-03-23T15:44:12;5.60;99.90
18225;DHT22;9237;48.590;8.854;2024-03-23T15:46:38;5.50;99.90
18225;DHT22;9237;48.590;8.854;2024-03-23T15:49:05;5.50;99.90
18225;DHT22;9237;48.590;8.854;2024-03-23T15:51:31;5.50;99.90
18225;DHT22;9237;48.590;8.854;2024-03-23T15:54:00;5.50;99.90
18225;DHT22;9237;48.590;8.854;2024-03-23T15:56:26;5.20;99.90
18225;DHT22;9237;48.590;8.854;2024-03-23T15:58:53;5.00;99.90
18225;DHT22;9237;48.590;8.854;2024-03-23T16:01:20;4.90;99.90
18225;DHT22;9237;48.590;8.854;2024-03-23T16:03:47;4.90;99.90
18225;DHT22;9237;48.590;8.854;2024-03-23T16:06:13;4.80;99.90
18225;DHT22;9237;48.590;8.854;2024-03-23T16:08:40;4.90;99.90
18225;DHT22;9237;48.590;8.854;2024-03-23T16:11:06;5.00;99.90
18225;DHT22;9237;48.590;8.854;2024-03-23T16:13:34;5.30;99.90
18225;DHT22;9237;48.590;8.854;2024-03-23T16:16:01;5.60;99.90
18225;DHT22;9237;48.590;8.854;2024-03-23T16:18:30;5.50;99.90
18225;DHT22;9237;48.590;8.854;2024-03-23T16:20:57;5.60;99.90
18225;DHT22;9237;48.590;8.854;2024-03-23T16:23:25;5.60;99.90
18225;DHT22;9237;48.590;8.854;2024-03-23T16:25:51;5.80;99.90
18225;DHT22;9237;48.590;8.854;2024-03-23T16:28:25;5.90;99.90
18225;DHT22;9237;48.590;8.854;2024-03-23T16:30:55;5.90;99.90
18225;DHT22;9237;48.590;8.854;2024-03-23T16:33:22;5.80;99.90
18225;DHT22;9237;48.590;8.854;2024-03-23T16:35:57;5.70;99.90
18225;DHT22;9237;48.590;8.854;2024-03-23T16:38:24;5.80;99.90
18225;DHT22;9237;48.590;8.854;2024-03-23T16:40:56;5.80;99.90
18225;DHT22;9237;48.590;8.854;2024-03-23T16:43:24;5.80;99.90
18225;DHT22;9237;48.590;8.854;2024-03-23T16:45:54;5.80;99.90
18225;DHT22;9237;48.590;8.854;2024-03-23T16:48:22;5.80;99.90
18225;DHT22;9237;48.590;8.854;2024-03-23T16:50:47;5.70;99.90
18225;DHT22;9237;48.590;8.854;2024-03-23T16:53:16;5.30;99.90
18225;DHT22;9237;48.590;8.854;2024-03-23T16:55:42;5.40;99.90
18225;DHT22;9237;48.590;8.854;2024-03-23T16:58:09;5.30;99.90